sensor_id;sensor_type;location;lat;lon;timestamp;temperature;humidity
48806;DHT22;34625;47.176;27.548;2022-12-10T00:01:06;22.10;57.50
48806;DHT22;34625;47.176;27.548;2022-12-10T00:03:33;22.10;57.50
48806;DHT22;34625;47.176;27.548;2022-12-10T00:06:04;22.10;57.40
48806;DHT22;34625;47.176;27.548;2022-12-10T00:08:30;22.10;57.50
48806;DHT22;34625;47.176;27.548;2022-12-10T00:10:56;22.10;57.50
48806;DHT22;34625;47.176;27.548;2022-12-10T00:13:22;22.20;57.30
48806;DHT22;34625;47.176;27.548;2022-12-10T00:15:48;22.10;57.40
48806;DHT22;34625;47.176;27.548;2022-12-10T00:18:14;22.20;57.20
48806;DHT22;34625;47.176;27.548;2022-12-10T00:20:40;22.10;57.10
48806;DHT22;34625;47.176;27.548;2022-12-10T00:23:06;22.20;57.10
48806;DHT22;34625;47.176;27.548;2022-12-10T00:25:32;22.20;57.10
48806;DHT22;34625;47.176;27.548;2022-12-10T00:27:58;22.20;57.10
48806;DHT22;34625;47.176;27.548;2022-12-10T00:30:25;22.30;57.10
48806;DHT22;34625;47.176;27.548;2022-12-10T00:32:51;22.50;57.00
48806;DHT22;34625;47.176;27.548;2022-12-10T00:35:17;22.40;56.60
48806;DHT22;34625;47.176;27.548;2022-12-10T00:37:43;22.40;56.80
48806;DHT22;34625;47.176;27.548;2022-12-10T00:40:09;22.50;56.90
48806;DHT22;34625;47.176;27.548;2022-12-10T00:42:36;22.40;56.70
48806;DHT22;34625;47.176;27.548;2022-12-10T00:45:04;22.50;56.70
48806;DHT22;34625;47.176;27.548;2022-12-10T00:47:30;22.50;56.80
48806;DHT22;34625;47.176;27.548;2022-12-10T00:49:56;22.50;56.70
48806;DHT22;34625;47.176;27.548;2022-12-10T00:52:22;22.50;56.70
48806;DHT22;34625;47.176;27.548;2022-12-10T00:54:49;22.50;56.70
48806;DHT22;34625;47.176;27.548;2022-12-10T00:57:15;22.40;56.70
48806;DHT22;34625;47.176;27.548;2022-12-10T00:59:41;22.40;56.90
48806;DHT22;34625;47.176;27.548;2022-12-10T01:02:07;22.40;57.00
48806;DHT22;34625;47.176;27.548;2022-12-10T01:04:33;22.40;57.00
48806;DHT22;34625;47.176;27.548;2022-12-10T01:06:59;22.40;56.80
48806;DHT22;34625;47.176;27.548;2022-12-10T01:09:27;22.40;56.70
48806;DHT22;34625;47.176;27.548;2022-12-10T01:11:56;22.30;56.70
48806;DHT22;34625;47.176;27.548;2022-12-10T01:14:29;22.40;56.70
48806;DHT22;34625;47.176;27.548;2022-12-10T01:16:58;22.40;56.80
48806;DHT22;34625;47.176;27.548;2022-12-10T01:19:25;22.50;56.80
48806;DHT22;34625;47.176;27.548;2022-12-10T01:21:55;22.40;56.40
48806;DHT22;34625;47.176;27.548;2022-12-10T01:24:23;22.40;56.50
48806;DHT22;34625;47.176;27.548;2022-12-10T01:26:49;22.30;56.50
48806;DHT22;34625;47.176;27.548;2022-12-10T01:29:16;22.40;56.70
48806;DHT22;34625;47.176;27.548;2022-12-10T01:31:42;22.40;56.70
48806;DHT22;34625;47.176;27.548;2022-12-10T01:34:11;22.40;56.80
48806;DHT22;34625;47.176;27.548;2022-12-10T01:36:40;22.30;56.70
48806;DHT22;34625;47.176;27.548;2022-12-10T01:39:09;22.40;56.70
48806;DHT22;34625;47.176;27.548;2022-12-10T01:41:45;22.40;56.50
48806;DHT22;34625;47.176;27.548;2022-12-10T01:46:40;22.50;56.70
48806;DHT22;34625;47.176;27.548;2022-12-10T01:49:08;22.50;56.60
48806;DHT22;34625;47.176;27.548;2022-12-10T01:51:37;22.50;56.40
48806;DHT22;34625;47.176;27.548;2022-12-10T01:54:07;22.50;56.40
48806;DHT22;34625;47.176;27.548;2022-12-10T01:56:40;22.50;56.70
48806;DHT22;34625;47.176;27.548;2022-12-10T01:59:07;22.50;56.50
48806;DHT22;34625;47.176;27.548;2022-12-10T02:04:32;22.60;56.70
48806;DHT22;34625;47.176;27.548;2022-12-10T02:09:41;22.60;56.50
48806;DHT22;34625;47.176;27.548;2022-12-10T02:12:32;22.70;56.30
48806;DHT22;34625;47.176;27.548;2022-12-10T02:22:58;22.80;56.00
48806;DHT22;34625;47.176;27.548;2022-12-10T02:25:31;22.70;56.20
48806;DHT22;34625;47.176;27.548;2022-12-10T02:30:41;22.70;56.20
48806;DHT22;34625;47.176;27.548;2022-12-10T02:33:08;22.70;56.40
48806;DHT22;34625;47.176;27.548;2022-12-10T02:35:36;22.50;56.60
48806;DHT22;34625;47.176;27.548;2022-12-10T02:38:13;22.40;56.60
48806;DHT22;34625;47.176;27.548;2022-12-10T02:40:48;22.30;56.80
48806;DHT22;34625;47.176;27.548;2022-12-10T02:43:15;22.40;56.90
48806;DHT22;34625;47.176;27.548;2022-12-10T02:45:44;22.30;57.20
48806;DHT22;34625;47.176;27.548;2022-12-10T02:48:13;22.20;57.20
48806;DHT22;34625;47.176;27.548;2022-12-10T02:50:41;22.20;57.20
48806;DHT22;34625;47.176;27.548;2022-12-10T02:53:08;22.10;57.30
48806;DHT22;34625;47.176;27.548;2022-12-10T02:55:55;22.20;57.40
48806;DHT22;34625;47.176;27.548;2022-12-10T02:58:49;22.10;57.40
48806;DHT22;34625;47.176;27.548;2022-12-10T03:07:08;22.10;57.60
48806;DHT22;34625;47.176;27.548;2022-12-10T03:09:54;22.00;57.40
48806;DHT22;34625;47.176;27.548;2022-12-10T03:12:35;22.00;57.40
48806;DHT22;34625;47.176;27.548;2022-12-10T03:15:05;22.00;57.10
48806;DHT22;34625;47.176;27.548;2022-12-10T03:17:32;22.10;57.30
48806;DHT22;34625;47.176;27.548;2022-12-10T03:20:00;22.00;57.30
48806;DHT22;34625;47.176;27.548;2022-12-10T03:22:28;22.00;57.40
48806;DHT22;34625;47.176;27.548;2022-12-10T03:24:55;22.10;57.40
48806;DHT22;34625;47.176;27.548;2022-12-10T03:27:23;22.00;57.20
48806;DHT22;34625;47.176;27.548;2022-12-10T03:29:56;22.10;57.20
48806;DHT22;34625;47.176;27.548;2022-12-10T03:32:25;22.30;57.00
48806;DHT22;34625;47.176;27.548;2022-12-10T03:34:54;22.20;56.50
48806;DHT22;34625;47.176;27.548;2022-12-10T03:37:22;22.40;56.50
48806;DHT22;34625;47.176;27.548;2022-12-10T03:39:49;22.40;56.40
48806;DHT22;34625;47.176;27.548;2022-12-10T03:42:15;22.30;56.50
48806;DHT22;34625;47.176;27.548;2022-12-10T03:44:41;22.50;56.70
48806;DHT22;34625;47.176;27.548;2022-12-10T03:47:13;22.20;56.80
48806;DHT22;34625;47.176;27.548;2022-12-10T03:49:41;22.30;56.90
48806;DHT22;34625;47.176;27.548;2022-12-10T03:52:08;22.50;56.70
48806;DHT22;34625;47.176;27.548;2022-12-10T03:54:34;22.40;56.70
48806;DHT22;34625;47.176;27.548;2022-12-10T03:57:00;22.30;56.70
48806;DHT22;34625;47.176;27.548;2022-12-10T03:59:26;22.40;56.80
48806;DHT22;34625;47.176;27.548;2022-12-10T04:01:53;22.20;56.70
48806;DHT22;34625;47.176;27.548;2022-12-10T04:04:19;22.30;56.90
48806;DHT22;34625;47.176;27.548;2022-12-10T04:06:45;22.20;56.70
48806;DHT22;34625;47.176;27.548;2022-12-10T04:09:13;22.20;56.80
48806;DHT22;34625;47.176;27.548;2022-12-10T04:11:39;22.10;56.80
48806;DHT22;34625;47.176;27.548;2022-12-10T04:14:05;22.10;56.90
48806;DHT22;34625;47.176;27.548;2022-12-10T04:16:49;22.10;57.10
48806;DHT22;34625;47.176;27.548;2022-12-10T04:19:17;22.00;57.10
48806;DHT22;34625;47.176;27.548;2022-12-10T04:21:44;21.90;57.20
48806;DHT22;34625;47.176;27.548;2022-12-10T04:24:34;21.90;57.50
48806;DHT22;34625;47.176;27.548;2022-12-10T04:27:36;21.90;57.60
48806;DHT22;34625;47.176;27.548;2022-12-10T04:30:04;21.90;57.60
48806;DHT22;34625;47.176;27.548;2022-12-10T04:32:30;21.90;57.40
48806;DHT22;34625;47.176;27.548;2022-12-10T04:34:57;21.90;57.40
48806;DHT22;34625;47.176;27.548;2022-12-10T04:37:25;21.80;57.30
48806;DHT22;34625;47.176;27.548;2022-12-10T04:39:52;21.80;57.50
48806;DHT22;34625;47.176;27.548;2022-12-10T04:42:19;21.80;57.30
48806;DHT22;34625;47.176;27.548;2022-12-10T04:44:45;21.70;57.30
48806;DHT22;34625;47.176;27.548;2022-12-10T04:47:12;21.80;57.30
48806;DHT22;34625;47.176;27.548;2022-12-10T04:49:39;21.80;57.30
48806;DHT22;34625;47.176;27.548;2022-12-10T04:52:07;21.80;57.50
48806;DHT22;34625;47.176;27.548;2022-12-10T04:54:33;21.70;57.40
48806;DHT22;34625;47.176;27.548;2022-12-10T04:56:59;21.70;57.50
48806;DHT22;34625;47.176;27.548;2022-12-10T04:59:25;21.70;57.50
48806;DHT22;34625;47.176;27.548;2022-12-10T05:01:53;21.80;57.40
48806;DHT22;34625;47.176;27.548;2022-12-10T05:04:19;21.80;57.30
48806;DHT22;34625;47.176;27.548;2022-12-10T05:06:46;21.70;57.30
48806;DHT22;34625;47.176;27.548;2022-12-10T05:09:13;21.90;57.40
48806;DHT22;34625;47.176;27.548;2022-12-10T05:11:40;21.70;57.40
48806;DHT22;34625;47.176;27.548;2022-12-10T05:14:06;21.80;57.40
48806;DHT22;34625;47.176;27.548;2022-12-10T05:16:33;21.70;57.40
48806;DHT22;34625;47.176;27.548;2022-12-10T05:18:59;21.80;57.40
48806;DHT22;34625;47.176;27.548;2022-12-10T05:21:28;21.70;57.30
48806;DHT22;34625;47.176;27.548;2022-12-10T05:24:13;21.80;57.30
48806;DHT22;34625;47.176;27.548;2022-12-10T05:26:40;21.70;57.20
48806;DHT22;34625;47.176;27.548;2022-12-10T05:29:06;21.70;57.20
48806;DHT22;34625;47.176;27.548;2022-12-10T05:31:32;21.80;57.20
48806;DHT22;34625;47.176;27.548;2022-12-10T05:33:58;21.80;57.10
48806;DHT22;34625;47.176;27.548;2022-12-10T05:36:27;21.60;57.10
48806;DHT22;34625;47.176;27.548;2022-12-10T05:38:54;21.70;57.20
48806;DHT22;34625;47.176;27.548;2022-12-10T05:41:23;21.60;57.10
48806;DHT22;34625;47.176;27.548;2022-12-10T05:43:50;21.60;57.00
48806;DHT22;34625;47.176;27.548;2022-12-10T05:46:24;21.60;57.00
48806;DHT22;34625;47.176;27.548;2022-12-10T05:48:50;21.70;57.10
48806;DHT22;34625;47.176;27.548;2022-12-10T05:51:18;21.50;56.90
48806;DHT22;34625;47.176;27.548;2022-12-10T05:53:45;21.70;57.10
48806;DHT22;34625;47.176;27.548;2022-12-10T05:56:13;21.60;56.80
48806;DHT22;34625;47.176;27.548;2022-12-10T05:58:41;21.70;56.70
48806;DHT22;34625;47.176;27.548;2022-12-10T06:01:13;21.70;56.50
48806;DHT22;34625;47.176;27.548;2022-12-10T06:03:40;21.90;56.30
48806;DHT22;34625;47.176;27.548;2022-12-10T06:06:06;21.90;56.40
48806;DHT22;34625;47.176;27.548;2022-12-10T06:08:33;21.90;56.40
48806;DHT22;34625;47.176;27.548;2022-12-10T06:11:08;21.80;56.50
48806;DHT22;34625;47.176;27.548;2022-12-10T06:13:35;21.70;56.90
48806;DHT22;34625;47.176;27.548;2022-12-10T06:16:09;21.60;56.90
48806;DHT22;34625;47.176;27.548;2022-12-10T06:18:36;21.60;57.00
48806;DHT22;34625;47.176;27.548;2022-12-10T06:21:07;21.40;57.00
48806;DHT22;34625;47.176;27.548;2022-12-10T06:23:34;21.50;57.10
48806;DHT22;34625;47.176;27.548;2022-12-10T06:26:21;21.50;57.20
48806;DHT22;34625;47.176;27.548;2022-12-10T06:28:49;21.40;57.20
48806;DHT22;34625;47.176;27.548;2022-12-10T06:31:15;21.50;57.10
48806;DHT22;34625;47.176;27.548;2022-12-10T06:33:42;21.60;57.00
48806;DHT22;34625;47.176;27.548;2022-12-10T06:36:10;21.50;56.80
48806;DHT22;34625;47.176;27.548;2022-12-10T06:38:37;21.50;56.80
48806;DHT22;34625;47.176;27.548;2022-12-10T06:41:10;21.50;56.80
48806;DHT22;34625;47.176;27.548;2022-12-10T06:43:37;21.70;60.00
48806;DHT22;34625;47.176;27.548;2022-12-10T06:46:10;21.60;61.70
48806;DHT22;34625;47.176;27.548;2022-12-10T06:48:37;21.60;60.90
48806;DHT22;34625;47.176;27.548;2022-12-10T06:51:04;21.60;60.70
48806;DHT22;34625;47.176;27.548;2022-12-10T06:53:31;21.70;61.20
48806;DHT22;34625;47.176;27.548;2022-12-10T06:56:00;21.70;61.10
48806;DHT22;34625;47.176;27.548;2022-12-10T06:58:31;21.60;60.60
48806;DHT22;34625;47.176;27.548;2022-12-10T07:01:08;21.70;61.10
48806;DHT22;34625;47.176;27.548;2022-12-10T07:03:34;21.80;60.50
48806;DHT22;34625;47.176;27.548;2022-12-10T07:06:01;21.70;61.00
48806;DHT22;34625;47.176;27.548;2022-12-10T07:08:28;21.70;60.80
48806;DHT22;34625;47.176;27.548;2022-12-10T07:10:55;21.60;59.20
48806;DHT22;34625;47.176;27.548;2022-12-10T07:13:21;22.00;65.30
48806;DHT22;34625;47.176;27.548;2022-12-10T07:15:47;22.70;66.60
48806;DHT22;34625;47.176;27.548;2022-12-10T07:18:13;23.30;64.20
48806;DHT22;34625;47.176;27.548;2022-12-10T07:20:39;23.60;66.90
48806;DHT22;34625;47.176;27.548;2022-12-10T07:23:06;23.90;67.60
48806;DHT22;34625;47.176;27.548;2022-12-10T07:25:32;24.30;67.30
48806;DHT22;34625;47.176;27.548;2022-12-10T07:27:59;24.60;68.00
48806;DHT22;34625;47.176;27.548;2022-12-10T07:30:25;24.70;46.70
48806;DHT22;34625;47.176;27.548;2022-12-10T07:32:51;24.50;44.70
48806;DHT22;34625;47.176;27.548;2022-12-10T07:35:17;24.30;46.30
48806;DHT22;34625;47.176;27.548;2022-12-10T07:37:43;24.30;46.20
48806;DHT22;34625;47.176;27.548;2022-12-10T07:40:09;24.10;46.90
48806;DHT22;34625;47.176;27.548;2022-12-10T07:42:36;24.00;45.90
48806;DHT22;34625;47.176;27.548;2022-12-10T07:45:02;24.10;43.80
48806;DHT22;34625;47.176;27.548;2022-12-10T07:47:29;24.10;43.10
48806;DHT22;34625;47.176;27.548;2022-12-10T07:49:55;24.00;43.80
48806;DHT22;34625;47.176;27.548;2022-12-10T07:52:21;24.10;43.10
48806;DHT22;34625;47.176;27.548;2022-12-10T07:54:47;23.90;41.60
48806;DHT22;34625;47.176;27.548;2022-12-10T07:57:13;23.90;52.10
48806;DHT22;34625;47.176;27.548;2022-12-10T07:59:39;23.90;50.90
48806;DHT22;34625;47.176;27.548;2022-12-10T08:02:05;23.80;50.00
48806;DHT22;34625;47.176;27.548;2022-12-10T08:04:31;23.70;52.00
48806;DHT22;34625;47.176;27.548;2022-12-10T08:06:57;23.60;53.30
48806;DHT22;34625;47.176;27.548;2022-12-10T08:09:23;23.60;53.60
48806;DHT22;34625;47.176;27.548;2022-12-10T08:11:49;23.50;55.80
48806;DHT22;34625;47.176;27.548;2022-12-10T08:14:15;23.60;55.00
48806;DHT22;34625;47.176;27.548;2022-12-10T08:16:41;23.60;55.30
48806;DHT22;34625;47.176;27.548;2022-12-10T08:19:08;23.60;55.30
48806;DHT22;34625;47.176;27.548;2022-12-10T08:21:35;23.60;54.70
48806;DHT22;34625;47.176;27.548;2022-12-10T08:24:01;23.70;53.70
48806;DHT22;34625;47.176;27.548;2022-12-10T08:26:30;23.60;56.80
48806;DHT22;34625;47.176;27.548;2022-12-10T08:28:56;23.60;55.90
48806;DHT22;34625;47.176;27.548;2022-12-10T08:31:23;23.70;56.20
48806;DHT22;34625;47.176;27.548;2022-12-10T08:33:50;23.70;54.40
48806;DHT22;34625;47.176;27.548;2022-12-10T08:36:17;23.60;55.50
48806;DHT22;34625;47.176;27.548;2022-12-10T08:38:44;23.70;56.90
48806;DHT22;34625;47.176;27.548;2022-12-10T08:41:16;23.60;57.00
48806;DHT22;34625;47.176;27.548;2022-12-10T08:43:43;23.50;56.70
48806;DHT22;34625;47.176;27.548;2022-12-10T08:46:09;23.70;57.10
48806;DHT22;34625;47.176;27.548;2022-12-10T08:48:36;23.60;56.90
48806;DHT22;34625;47.176;27.548;2022-12-10T08:51:03;23.60;56.80
48806;DHT22;34625;47.176;27.548;2022-12-10T08:53:30;23.70;57.20
48806;DHT22;34625;47.176;27.548;2022-12-10T08:55:56;23.80;57.40
48806;DHT22;34625;47.176;27.548;2022-12-10T08:58:22;23.60;57.60
48806;DHT22;34625;47.176;27.548;2022-12-10T09:00:49;23.60;57.70
48806;DHT22;34625;47.176;27.548;2022-12-10T09:03:15;23.60;57.90
48806;DHT22;34625;47.176;27.548;2022-12-10T09:05:42;23.70;57.90
48806;DHT22;34625;47.176;27.548;2022-12-10T09:08:09;23.60;57.90
48806;DHT22;34625;47.176;27.548;2022-12-10T09:10:39;23.60;58.00
48806;DHT22;34625;47.176;27.548;2022-12-10T09:13:05;23.50;58.20
48806;DHT22;34625;47.176;27.548;2022-12-10T09:15:31;23.60;58.10
48806;DHT22;34625;47.176;27.548;2022-12-10T09:17:57;23.60;58.20
48806;DHT22;34625;47.176;27.548;2022-12-10T09:20:23;23.60;58.30
48806;DHT22;34625;47.176;27.548;2022-12-10T09:22:49;23.60;58.40
48806;DHT22;34625;47.176;27.548;2022-12-10T09:25:15;23.60;58.40
48806;DHT22;34625;47.176;27.548;2022-12-10T09:27:43;23.60;58.20
48806;DHT22;34625;47.176;27.548;2022-12-10T09:30:10;23.60;58.20
48806;DHT22;34625;47.176;27.548;2022-12-10T09:32:36;23.60;58.20
48806;DHT22;34625;47.176;27.548;2022-12-10T09:35:03;23.50;58.40
48806;DHT22;34625;47.176;27.548;2022-12-10T09:37:29;23.50;58.50
48806;DHT22;34625;47.176;27.548;2022-12-10T09:39:55;23.40;58.60
48806;DHT22;34625;47.176;27.548;2022-12-10T09:48:17;23.40;58.80
48806;DHT22;34625;47.176;27.548;2022-12-10T09:51:07;23.30;59.10
48806;DHT22;34625;47.176;27.548;2022-12-10T09:53:36;23.30;58.90
48806;DHT22;34625;47.176;27.548;2022-12-10T09:56:03;23.30;58.80
48806;DHT22;34625;47.176;27.548;2022-12-10T09:58:30;23.40;58.70
48806;DHT22;34625;47.176;27.548;2022-12-10T10:01:01;23.30;58.70
48806;DHT22;34625;47.176;27.548;2022-12-10T10:03:32;23.30;58.80
48806;DHT22;34625;47.176;27.548;2022-12-10T10:06:03;23.20;58.90
48806;DHT22;34625;47.176;27.548;2022-12-10T10:08:33;23.30;58.90
48806;DHT22;34625;47.176;27.548;2022-12-10T10:11:01;23.20;58.60
48806;DHT22;34625;47.176;27.548;2022-12-10T10:13:40;23.20;59.00
48806;DHT22;34625;47.176;27.548;2022-12-10T10:21:25;23.10;59.00
48806;DHT22;34625;47.176;27.548;2022-12-10T10:23:52;23.00;59.10
48806;DHT22;34625;47.176;27.548;2022-12-10T10:26:19;23.00;59.30
48806;DHT22;34625;47.176;27.548;2022-12-10T10:28:45;23.10;59.70
48806;DHT22;34625;47.176;27.548;2022-12-10T10:31:23;23.10;59.60
48806;DHT22;34625;47.176;27.548;2022-12-10T10:33:59;23.20;59.20
48806;DHT22;34625;47.176;27.548;2022-12-10T10:36:27;23.20;59.00
48806;DHT22;34625;47.176;27.548;2022-12-10T10:38:53;23.20;59.10
48806;DHT22;34625;47.176;27.548;2022-12-10T10:41:20;23.20;59.10
48806;DHT22;34625;47.176;27.548;2022-12-10T10:43:46;23.20;59.10
48806;DHT22;34625;47.176;27.548;2022-12-10T10:46:21;23.10;59.10
48806;DHT22;34625;47.176;27.548;2022-12-10T10:48:47;23.10;59.20
48806;DHT22;34625;47.176;27.548;2022-12-10T10:53:51;23.20;59.10
48806;DHT22;34625;47.176;27.548;2022-12-10T10:56:25;23.10;59.00
48806;DHT22;34625;47.176;27.548;2022-12-10T10:59:06;23.10;59.20
48806;DHT22;34625;47.176;27.548;2022-12-10T11:01:52;23.20;59.00
48806;DHT22;34625;47.176;27.548;2022-12-10T11:04:55;23.10;59.10
48806;DHT22;34625;47.176;27.548;2022-12-10T11:09:59;23.10;59.30
48806;DHT22;34625;47.176;27.548;2022-12-10T11:12:37;23.20;59.10
48806;DHT22;34625;47.176;27.548;2022-12-10T11:17:53;23.10;58.80
48806;DHT22;34625;47.176;27.548;2022-12-10T11:20:29;23.20;58.80
48806;DHT22;34625;47.176;27.548;2022-12-10T11:23:09;23.20;58.90
48806;DHT22;34625;47.176;27.548;2022-12-10T11:30:33;23.00;58.80
48806;DHT22;34625;47.176;27.548;2022-12-10T11:33:27;23.00;58.70
48806;DHT22;34625;47.176;27.548;2022-12-10T11:47:08;23.30;49.30
48806;DHT22;34625;47.176;27.548;2022-12-10T11:49:47;23.30;48.30
48806;DHT22;34625;47.176;27.548;2022-12-10T11:52:22;23.30;49.80
48806;DHT22;34625;47.176;27.548;2022-12-10T12:04:05;23.80;52.80
48806;DHT22;34625;47.176;27.548;2022-12-10T12:15:13;24.40;45.30
48806;DHT22;34625;47.176;27.548;2022-12-10T12:17:49;24.30;44.50
48806;DHT22;34625;47.176;27.548;2022-12-10T12:22:58;24.10;43.90
48806;DHT22;34625;47.176;27.548;2022-12-10T12:25:35;24.10;44.40
48806;DHT22;34625;47.176;27.548;2022-12-10T12:28:16;24.00;43.60
48806;DHT22;34625;47.176;27.548;2022-12-10T12:30:45;23.90;44.10
48806;DHT22;34625;47.176;27.548;2022-12-10T12:33:28;24.00;44.10
48806;DHT22;34625;47.176;27.548;2022-12-10T12:36:04;23.90;44.60
48806;DHT22;34625;47.176;27.548;2022-12-10T12:46:46;24.00;54.00
48806;DHT22;34625;47.176;27.548;2022-12-10T12:49:32;24.10;54.40
48806;DHT22;34625;47.176;27.548;2022-12-10T12:52:01;24.10;54.70
48806;DHT22;34625;47.176;27.548;2022-12-10T12:54:29;24.10;54.80
48806;DHT22;34625;47.176;27.548;2022-12-10T13:02:14;24.10;55.10
48806;DHT22;34625;47.176;27.548;2022-12-10T13:04:43;24.20;55.40
48806;DHT22;34625;47.176;27.548;2022-12-10T13:09:51;24.20;55.70
48806;DHT22;34625;47.176;27.548;2022-12-10T13:12:30;24.10;55.80
48806;DHT22;34625;47.176;27.548;2022-12-10T13:21:15;24.00;56.10
48806;DHT22;34625;47.176;27.548;2022-12-10T13:23:52;24.00;56.20
48806;DHT22;34625;47.176;27.548;2022-12-10T13:26:27;24.00;56.20
48806;DHT22;34625;47.176;27.548;2022-12-10T13:28:54;23.80;56.30
48806;DHT22;34625;47.176;27.548;2022-12-10T13:36:37;23.70;56.80
48806;DHT22;34625;47.176;27.548;2022-12-10T13:39:33;23.70;56.80
48806;DHT22;34625;47.176;27.548;2022-12-10T13:45:06;23.80;56.70
48806;DHT22;34625;47.176;27.548;2022-12-10T13:47:51;23.70;56.70
48806;DHT22;34625;47.176;27.548;2022-12-10T14:06:17;23.90;56.80
48806;DHT22;34625;47.176;27.548;2022-12-10T14:09:05;23.90;56.80
48806;DHT22;34625;47.176;27.548;2022-12-10T14:11:36;23.90;56.80
48806;DHT22;34625;47.176;27.548;2022-12-10T14:14:05;24.00;56.80
48806;DHT22;34625;47.176;27.548;2022-12-10T14:16:33;24.10;56.90
48806;DHT22;34625;47.176;27.548;2022-12-10T14:19:07;24.10;56.90
48806;DHT22;34625;47.176;27.548;2022-12-10T14:21:38;24.10;56.90
48806;DHT22;34625;47.176;27.548;2022-12-10T14:24:05;24.10;56.90
48806;DHT22;34625;47.176;27.548;2022-12-10T14:26:35;24.10;56.80
48806;DHT22;34625;47.176;27.548;2022-12-10T14:31:36;24.10;56.80
48806;DHT22;34625;47.176;27.548;2022-12-10T14:34:07;24.10;56.90
48806;DHT22;34625;47.176;27.548;2022-12-10T14:36:54;24.00;56.80
48806;DHT22;34625;47.176;27.548;2022-12-10T14:39:29;24.00;56.80
48806;DHT22;34625;47.176;27.548;2022-12-10T14:41:58;24.00;57.00
48806;DHT22;34625;47.176;27.548;2022-12-10T14:44:25;23.90;57.20
48806;DHT22;34625;47.176;27.548;2022-12-10T14:46:52;23.90;57.30
48806;DHT22;34625;47.176;27.548;2022-12-10T14:49:27;23.80;57.50
48806;DHT22;34625;47.176;27.548;2022-12-10T14:51:55;23.80;57.80
48806;DHT22;34625;47.176;27.548;2022-12-10T14:54:33;23.60;57.90
48806;DHT22;34625;47.176;27.548;2022-12-10T14:57:07;23.60;58.30
48806;DHT22;34625;47.176;27.548;2022-12-10T15:00:04;23.50;58.70
48806;DHT22;34625;47.176;27.548;2022-12-10T15:02:35;23.50;58.60
48806;DHT22;34625;47.176;27.548;2022-12-10T15:05:03;23.50;58.60
48806;DHT22;34625;47.176;27.548;2022-12-10T15:07:35;23.50;58.50
48806;DHT22;34625;47.176;27.548;2022-12-10T15:10:12;23.50;58.50
48806;DHT22;34625;47.176;27.548;2022-12-10T15:12:47;23.50;59.00
48806;DHT22;34625;47.176;27.548;2022-12-10T15:15:22;23.50;59.30
48806;DHT22;34625;47.176;27.548;2022-12-10T15:20:44;23.40;61.20
48806;DHT22;34625;47.176;27.548;2022-12-10T15:23:33;23.40;64.10
48806;DHT22;34625;47.176;27.548;2022-12-10T15:26:21;23.50;63.80
48806;DHT22;34625;47.176;27.548;2022-12-10T15:28:49;23.60;53.00
48806;DHT22;34625;47.176;27.548;2022-12-10T15:31:30;23.90;61.10
48806;DHT22;34625;47.176;27.548;2022-12-10T15:34:08;23.90;60.00
48806;DHT22;34625;47.176;27.548;2022-12-10T15:36:43;24.20;58.40
48806;DHT22;34625;47.176;27.548;2022-12-10T15:39:18;24.20;57.50
48806;DHT22;34625;47.176;27.548;2022-12-10T15:49:28;24.50;55.80
48806;DHT22;34625;47.176;27.548;2022-12-10T15:51:55;24.30;55.40
48806;DHT22;34625;47.176;27.548;2022-12-10T15:54:32;24.40;55.30
48806;DHT22;34625;47.176;27.548;2022-12-10T15:56:58;24.30;54.90
48806;DHT22;34625;47.176;27.548;2022-12-10T15:59:24;24.40;56.70
48806;DHT22;34625;47.176;27.548;2022-12-10T16:01:50;24.40;54.60
48806;DHT22;34625;47.176;27.548;2022-12-10T16:04:16;24.40;54.20
48806;DHT22;34625;47.176;27.548;2022-12-10T16:06:42;24.40;53.80
48806;DHT22;34625;47.176;27.548;2022-12-10T16:09:09;24.60;54.80
48806;DHT22;34625;47.176;27.548;2022-12-10T16:11:35;24.50;54.70
48806;DHT22;34625;47.176;27.548;2022-12-10T16:14:01;24.50;53.70
48806;DHT22;34625;47.176;27.548;2022-12-10T16:16:29;24.50;53.40
48806;DHT22;34625;47.176;27.548;2022-12-10T16:18:55;24.50;53.10
48806;DHT22;34625;47.176;27.548;2022-12-10T16:21:21;24.40;52.70
48806;DHT22;34625;47.176;27.548;2022-12-10T16:23:48;24.40;52.60
48806;DHT22;34625;47.176;27.548;2022-12-10T16:26:16;24.40;52.30
48806;DHT22;34625;47.176;27.548;2022-12-10T16:28:44;24.40;52.10
48806;DHT22;34625;47.176;27.548;2022-12-10T16:31:18;24.30;51.80
48806;DHT22;34625;47.176;27.548;2022-12-10T16:33:45;24.30;51.80
48806;DHT22;34625;47.176;27.548;2022-12-10T16:36:12;24.40;51.60
48806;DHT22;34625;47.176;27.548;2022-12-10T16:38:39;24.50;51.40
48806;DHT22;34625;47.176;27.548;2022-12-10T16:41:17;24.50;51.40
48806;DHT22;34625;47.176;27.548;2022-12-10T16:43:44;24.30;51.10
48806;DHT22;34625;47.176;27.548;2022-12-10T16:46:11;24.30;50.90
48806;DHT22;34625;47.176;27.548;2022-12-10T16:48:37;24.20;50.70
48806;DHT22;34625;47.176;27.548;2022-12-10T16:51:05;24.20;50.60
48806;DHT22;34625;47.176;27.548;2022-12-10T16:53:31;24.20;50.40
48806;DHT22;34625;47.176;27.548;2022-12-10T16:56:01;24.20;50.30
48806;DHT22;34625;47.176;27.548;2022-12-10T16:58:27;24.30;50.50
48806;DHT22;34625;47.176;27.548;2022-12-10T17:00:54;24.00;50.60
48806;DHT22;34625;47.176;27.548;2022-12-10T17:03:22;24.00;51.10
48806;DHT22;34625;47.176;27.548;2022-12-10T17:05:53;24.00;51.60
48806;DHT22;34625;47.176;27.548;2022-12-10T17:08:20;23.90;52.00
48806;DHT22;34625;47.176;27.548;2022-12-10T17:10:47;23.80;52.40
48806;DHT22;34625;47.176;27.548;2022-12-10T17:13:37;23.90;53.00
48806;DHT22;34625;47.176;27.548;2022-12-10T17:16:04;23.80;53.20
48806;DHT22;34625;47.176;27.548;2022-12-10T17:18:32;23.60;53.40
48806;DHT22;34625;47.176;27.548;2022-12-10T17:20:59;23.80;54.00
48806;DHT22;34625;47.176;27.548;2022-12-10T17:23:25;23.60;54.40
48806;DHT22;34625;47.176;27.548;2022-12-10T17:25:51;23.60;54.40
48806;DHT22;34625;47.176;27.548;2022-12-10T17:28:20;23.60;54.60
48806;DHT22;34625;47.176;27.548;2022-12-10T17:30:47;23.60;54.70
48806;DHT22;34625;47.176;27.548;2022-12-10T17:33:19;23.60;54.70
48806;DHT22;34625;47.176;27.548;2022-12-10T17:35:46;23.60;54.60
48806;DHT22;34625;47.176;27.548;2022-12-10T17:38:21;23.60;55.00
48806;DHT22;34625;47.176;27.548;2022-12-10T17:40:48;23.50;55.90
48806;DHT22;34625;47.176;27.548;2022-12-10T17:43:14;23.40;55.90
48806;DHT22;34625;47.176;27.548;2022-12-10T17:45:41;23.40;56.50
48806;DHT22;34625;47.176;27.548;2022-12-10T17:48:11;23.30;59.50
48806;DHT22;34625;47.176;27.548;2022-12-10T17:50:38;23.20;60.60